createdAt,value
2023-11-30T00:00:10.878Z,87.66
2023-11-30T00:01:11.083Z,87.66
2023-11-30T00:02:10.730Z,87.87
2023-11-30T00:03:10.832Z,87.87
2023-11-30T00:04:10.647Z,87.92
2023-11-30T00:05:10.627Z,87.82
2023-11-30T00:06:10.671Z,87.52
2023-11-30T00:07:10.820Z,87.42
2023-11-30T00:08:10.674Z,87.42
2023-11-30T00:09:10.897Z,87.08
2023-11-30T00:10:10.636Z,86.98
2023-11-30T00:11:10.561Z,86.68
2023-11-30T00:12:10.585Z,85.99
2023-11-30T00:13:10.675Z,85.88
2023-11-30T00:14:10.857Z,86.08
2023-11-30T00:15:10.655Z,86.29
2023-11-30T00:16:10.541Z,86.49
2023-11-30T00:17:10.454Z,86.49
2023-11-30T00:18:10.644Z,86.49
2023-11-30T00:19:10.688Z,86.49
2023-11-30T00:20:10.476Z,86.68
2023-11-30T00:21:10.514Z,86.49
2023-11-30T00:22:10.425Z,86.58
2023-11-30T00:23:10.411Z,86.29
2023-11-30T00:24:10.427Z,85.69
2023-11-30T00:25:10.517Z,85.49
2023-11-30T00:26:10.409Z,85.14
2023-11-30T00:27:10.450Z,85.44
2023-11-30T00:28:10.358Z,85.05
2023-11-30T00:29:10.682Z,85.19
2023-11-30T00:30:10.507Z,85.39
2023-11-30T00:31:10.372Z,85.78
2023-11-30T00:32:10.417Z,85.94
2023-11-30T00:33:10.440Z,85.74
2023-11-30T00:34:10.280Z,85.58
2023-11-30T00:35:10.533Z,85.58
2023-11-30T00:36:10.329Z,85.69
2023-11-30T00:37:10.302Z,85.99
2023-11-30T00:38:10.329Z,86.33
2023-11-30T00:39:10.330Z,86.63
2023-11-30T00:40:10.237Z,86.72
2023-11-30T00:41:10.451Z,87.02
2023-11-30T00:42:10.356Z,87.23
2023-11-30T00:43:10.303Z,87.12
2023-11-30T00:44:10.292Z,86.97
2023-11-30T00:45:10.201Z,87.07
2023-11-30T00:46:10.369Z,86.97
2023-11-30T00:47:10.319Z,86.57
2023-11-30T00:48:10.272Z,87.07
2023-11-30T00:49:10.193Z,87.37
2023-11-30T00:50:10.215Z,86.61
2023-11-30T00:51:10.198Z,87.01
2023-11-30T00:52:10.114Z,87.11
2023-11-30T00:53:10.143Z,87.21
2023-11-30T00:54:10.179Z,87.51
2023-11-30T00:55:10.212Z,87.51
2023-11-30T00:56:10.150Z,87.71
2023-11-30T00:57:10.116Z,87.61
2023-11-30T00:58:10.077Z,87.71
2023-11-30T00:59:10.073Z,87.81
2023-11-30T01:00:10.171Z,87.81
2023-11-30T01:01:10.192Z,87.81
2023-11-30T01:02:10.556Z,87.81
2023-11-30T01:03:10.086Z,87.41
2023-11-30T01:04:10.975Z,87.30
2023-11-30T01:05:10.953Z,87.51
2023-11-30T01:06:09.942Z,87.61
2023-11-30T01:07:10.028Z,87.61
2023-11-30T01:08:09.921Z,87.71
2023-11-30T01:09:09.973Z,87.81
2023-11-30T01:10:09.933Z,87.81
2023-11-30T01:11:10.055Z,87.30
2023-11-30T01:12:09.966Z,87.41
2023-11-30T01:13:09.919Z,87.65
2023-11-30T01:14:09.865Z,87.85
2023-11-30T01:15:10.203Z,87.85
2023-11-30T01:16:09.919Z,87.95
2023-11-30T01:17:09.918Z,87.95
2023-11-30T01:18:10.801Z,87.95
2023-11-30T01:19:09.913Z,88.05
2023-11-30T01:20:09.861Z,88.35
2023-11-30T01:21:09.932Z,88.45
2023-11-30T01:22:09.826Z,88.25
2023-11-30T01:23:09.837Z,88.05
2023-11-30T01:24:10.673Z,87.95
2023-11-30T01:25:09.839Z,88.15
2023-11-30T01:26:09.850Z,88.21
2023-11-30T01:27:09.968Z,88.01
2023-11-30T01:28:09.864Z,88.05
2023-11-30T01:29:09.773Z,88.01
2023-11-30T01:30:09.817Z,88.25
2023-11-30T01:31:09.796Z,88.35
2023-11-30T01:32:09.699Z,88.35
2023-11-30T01:33:09.973Z,88.21
2023-11-30T01:34:09.698Z,88.01
2023-11-30T01:35:09.711Z,88.15
2023-11-30T01:36:09.731Z,88.21
2023-11-30T01:37:09.702Z,88.21
2023-11-30T01:38:09.615Z,87.65
2023-11-30T01:39:09.730Z,87.75
2023-11-30T01:40:09.648Z,87.95
2023-11-30T01:41:09.655Z,88.05
2023-11-30T01:42:09.595Z,88.15
2023-11-30T01:43:09.736Z,88.05
2023-11-30T01:44:09.656Z,88.15
2023-11-30T01:45:09.790Z,88.25
2023-11-30T01:46:09.588Z,88.15
2023-11-30T01:47:09.588Z,87.95
2023-11-30T01:48:09.543Z,88.05
2023-11-30T01:49:09.606Z,88.05
2023-11-30T01:50:09.502Z,88.05
2023-11-30T01:51:09.523Z,88.05
2023-11-30T01:52:09.488Z,88.05
2023-11-30T01:53:09.593Z,88.35
2023-11-30T01:54:09.502Z,88.55
2023-11-30T01:55:09.410Z,88.15
2023-11-30T01:56:09.450Z,88.15
2023-11-30T01:57:09.716Z,88.25
2023-11-30T01:58:09.423Z,88.35
2023-11-30T01:59:09.747Z,88.55
2023-11-30T02:00:11.447Z,88.25
2023-11-30T02:01:09.388Z,88.29
2023-11-30T02:02:09.499Z,88.55
2023-11-30T02:03:09.647Z,88.55
2023-11-30T02:04:09.426Z,88.75
2023-11-30T02:05:09.384Z,88.75
2023-11-30T02:06:09.334Z,88.55
2023-11-30T02:07:09.296Z,88.55
2023-11-30T02:08:09.299Z,88.09
2023-11-30T02:09:09.437Z,88.29
2023-11-30T02:10:09.303Z,88.39
2023-11-30T02:11:09.339Z,88.09
2023-11-30T02:12:09.263Z,88.49
2023-11-30T02:13:09.219Z,88.79
2023-11-30T02:14:09.251Z,89.64
2023-11-30T02:15:09.374Z,89.83
2023-11-30T02:16:09.358Z,89.89
2023-11-30T02:17:09.173Z,89.99
2023-11-30T02:18:09.248Z,89.99
2023-11-30T02:19:09.158Z,89.89
2023-11-30T02:20:09.193Z,89.89
2023-11-30T02:21:09.296Z,89.49
2023-11-30T02:22:09.199Z,89.29
2023-11-30T02:23:09.103Z,89.29
2023-11-30T02:24:09.183Z,89.39
2023-11-30T02:25:09.216Z,89.09
2023-11-30T02:26:09.106Z,89.09
2023-11-30T02:27:09.235Z,89.19
2023-11-30T02:28:09.121Z,89.09
2023-11-30T02:29:09.076Z,88.79
2023-11-30T02:30:09.120Z,88.93
2023-11-30T02:31:09.114Z,89.64
2023-11-30T02:32:09.082Z,89.83
2023-11-30T02:33:09.267Z,89.94
2023-11-30T02:34:09.016Z,90.03
2023-11-30T02:35:09.020Z,89.94
2023-11-30T02:36:09.028Z,90.23
2023-11-30T02:37:08.934Z,89.64
2023-11-30T02:38:08.991Z,89.83
2023-11-30T02:39:09.195Z,90.03
2023-11-30T02:40:08.948Z,89.94
2023-11-30T02:41:08.960Z,89.89
2023-11-30T02:42:08.989Z,89.64
2023-11-30T02:43:08.897Z,89.83
2023-11-30T02:44:09.114Z,89.94
2023-11-30T02:45:09.217Z,89.89
2023-11-30T02:46:08.907Z,89.89
2023-11-30T02:47:08.876Z,89.79
2023-11-30T02:48:08.963Z,89.79
2023-11-30T02:49:08.889Z,89.59
2023-11-30T02:50:08.878Z,89.19
2023-11-30T02:51:08.852Z,89.39
2023-11-30T02:52:08.912Z,89.39
2023-11-30T02:53:08.832Z,89.39
2023-11-30T02:54:08.781Z,89.39
2023-11-30T02:55:08.752Z,89.29
2023-11-30T02:56:08.812Z,88.89
2023-11-30T02:57:08.789Z,88.79
2023-11-30T02:58:09.701Z,88.79
2023-11-30T02:59:08.760Z,88.59
2023-11-30T03:00:08.817Z,88.79
2023-11-30T03:01:08.752Z,88.59
2023-11-30T03:02:08.774Z,88.99
2023-11-30T03:03:08.828Z,89.09
2023-11-30T03:04:08.799Z,89.19
2023-11-30T03:05:08.700Z,89.39
2023-11-30T03:06:08.733Z,89.39
2023-11-30T03:07:08.680Z,89.19
2023-11-30T03:08:08.879Z,89.09
2023-11-30T03:09:08.633Z,88.99
2023-11-30T03:10:08.664Z,88.93
2023-11-30T03:11:08.639Z,89.03
2023-11-30T03:12:08.724Z,89.14
2023-11-30T03:13:08.746Z,89.23
2023-11-30T03:14:08.603Z,89.33
2023-11-30T03:15:08.565Z,88.83
2023-11-30T03:16:08.609Z,88.93
2023-11-30T03:17:08.779Z,89.23
2023-11-30T03:18:08.729Z,89.23
2023-11-30T03:19:16.384Z,89.14
2023-11-30T03:20:08.555Z,89.14
2023-11-30T03:21:08.542Z,89.43
2023-11-30T03:22:08.497Z,89.43
2023-11-30T03:23:08.517Z,89.53
2023-11-30T03:24:08.579Z,89.83
2023-11-30T03:25:08.540Z,89.83
2023-11-30T03:26:08.488Z,89.83
2023-11-30T03:27:08.486Z,89.73
2023-11-30T03:28:08.445Z,89.33
2023-11-30T03:29:08.448Z,89.43
2023-11-30T03:30:08.508Z,89.14
2023-11-30T03:31:08.452Z,88.83
2023-11-30T03:32:08.506Z,89.14
2023-11-30T03:33:08.474Z,88.93
2023-11-30T03:34:08.382Z,88.83
2023-11-30T03:35:08.370Z,88.78
2023-11-30T03:36:08.407Z,89.28
2023-11-30T03:37:08.945Z,89.68
2023-11-30T03:38:08.396Z,89.98
2023-11-30T03:39:08.352Z,89.53
2023-11-30T03:40:08.692Z,89.58
2023-11-30T03:41:08.305Z,89.07
2023-11-30T03:42:08.398Z,89.48
2023-11-30T03:43:08.244Z,89.48
2023-11-30T03:44:08.259Z,88.87
2023-11-30T03:45:08.433Z,89.37
2023-11-30T03:46:08.268Z,89.58
2023-11-30T03:47:08.868Z,89.48
2023-11-30T03:48:08.267Z,89.28
2023-11-30T03:49:08.206Z,89.48
2023-11-30T03:50:08.224Z,89.68
2023-11-30T03:51:08.202Z,89.68
2023-11-30T03:52:08.195Z,89.48
2023-11-30T03:53:08.690Z,89.48
2023-11-30T03:54:08.140Z,89.48
2023-11-30T03:55:08.127Z,89.33
2023-11-30T03:56:08.115Z,89.33
2023-11-30T03:57:08.172Z,89.23
2023-11-30T03:58:08.127Z,89.03
2023-11-30T03:59:08.146Z,89.03
2023-11-30T04:00:08.295Z,88.37
2023-11-30T04:01:08.105Z,88.37
2023-11-30T04:02:08.093Z,88.78
2023-11-30T04:03:08.049Z,89.07
2023-11-30T04:04:08.069Z,88.87
2023-11-30T04:05:08.084Z,88.68
2023-11-30T04:06:08.121Z,88.57
2023-11-30T04:07:08.013Z,88.87
2023-11-30T04:08:07.979Z,89.07
2023-11-30T04:09:08.038Z,89.18
2023-11-30T04:10:07.951Z,88.78
2023-11-30T04:11:08.013Z,88.98
2023-11-30T04:12:07.997Z,89.18
2023-11-30T04:13:08.437Z,88.98
2023-11-30T04:14:07.920Z,88.68
2023-11-30T04:15:07.918Z,88.68
2023-11-30T04:16:07.901Z,88.87
2023-11-30T04:17:07.953Z,88.98
2023-11-30T04:18:08.070Z,88.98
2023-11-30T04:19:07.936Z,88.98
2023-11-30T04:20:07.837Z,89.18
2023-11-30T04:21:07.884Z,89.14
2023-11-30T04:22:07.831Z,88.68
2023-11-30T04:23:07.818Z,88.57
2023-11-30T04:24:07.841Z,88.57
2023-11-30T04:25:07.834Z,88.68
2023-11-30T04:26:07.754Z,88.48
2023-11-30T04:27:07.954Z,88.68
2023-11-30T04:28:07.772Z,88.87
2023-11-30T04:29:07.758Z,88.87
2023-11-30T04:30:07.761Z,89.28
2023-11-30T04:31:07.806Z,89.28
2023-11-30T04:32:07.704Z,88.98
2023-11-30T04:33:07.925Z,89.28
2023-11-30T04:34:07.711Z,89.58
2023-11-30T04:35:07.719Z,89.58
2023-11-30T04:36:07.757Z,89.68
2023-11-30T04:37:07.731Z,89.58
2023-11-30T04:38:07.677Z,89.48
2023-11-30T04:39:07.687Z,89.37
2023-11-30T04:40:07.677Z,89.28
2023-11-30T04:41:07.627Z,89.03
2023-11-30T04:42:07.668Z,88.83
2023-11-30T04:43:07.636Z,88.68
2023-11-30T04:44:07.571Z,88.37
2023-11-30T04:45:07.627Z,88.78
2023-11-30T04:46:07.589Z,88.87
2023-11-30T04:47:07.583Z,88.48
2023-11-30T04:48:07.650Z,88.68
2023-11-30T04:49:07.578Z,89.18
2023-11-30T04:50:07.588Z,89.18
2023-11-30T04:51:07.658Z,89.07
2023-11-30T04:52:07.493Z,89.07
2023-11-30T04:53:07.534Z,88.98
2023-11-30T04:54:07.565Z,88.68
2023-11-30T04:55:07.598Z,88.68
2023-11-30T04:56:07.495Z,88.87
2023-11-30T04:57:07.485Z,88.98
2023-11-30T04:58:07.447Z,88.87
2023-11-30T04:59:07.441Z,88.68
2023-11-30T05:00:07.470Z,88.78
2023-11-30T05:01:07.418Z,88.98
2023-11-30T05:02:07.454Z,89.07
2023-11-30T05:03:08.083Z,89.18
2023-11-30T05:04:07.637Z,89.28
2023-11-30T05:05:07.399Z,89.18
2023-11-30T05:06:07.444Z,89.28
2023-11-30T05:07:07.393Z,89.28
2023-11-30T05:08:07.268Z,89.37
2023-11-30T05:09:07.387Z,89.48
2023-11-30T05:10:07.280Z,89.37
2023-11-30T05:11:07.305Z,89.37
2023-11-30T05:12:07.278Z,89.37
2023-11-30T05:13:07.280Z,89.28
2023-11-30T05:14:07.240Z,89.28
2023-11-30T05:15:07.262Z,89.23
2023-11-30T05:16:07.242Z,89.14
2023-11-30T05:17:07.180Z,88.68
2023-11-30T05:18:07.287Z,88.98
2023-11-30T05:19:07.158Z,89.07
2023-11-30T05:20:07.230Z,89.18
2023-11-30T05:21:07.197Z,89.28
2023-11-30T05:22:07.387Z,89.18
2023-11-30T05:23:07.142Z,89.28
2023-11-30T05:24:07.924Z,89.37
2023-11-30T05:25:07.099Z,89.28
2023-11-30T05:26:07.120Z,89.37
2023-11-30T05:27:07.151Z,89.28
2023-11-30T05:28:07.127Z,89.07
2023-11-30T05:29:07.084Z,89.18
2023-11-30T05:30:07.118Z,89.07
2023-11-30T05:31:07.124Z,89.28
2023-11-30T05:32:07.067Z,89.37
2023-11-30T05:33:07.141Z,89.32
2023-11-30T05:34:06.980Z,89.62
2023-11-30T05:35:07.002Z,89.92
2023-11-30T05:36:07.015Z,90.12
2023-11-30T05:37:06.979Z,90.02
2023-11-30T05:38:06.998Z,89.92
2023-11-30T05:39:07.069Z,89.92
2023-11-30T05:40:06.944Z,89.98
2023-11-30T05:41:07.016Z,89.78
2023-11-30T05:42:06.933Z,89.42
2023-11-30T05:43:06.933Z,89.52
2023-11-30T05:44:06.930Z,89.52
2023-11-30T05:45:07.005Z,89.42
2023-11-30T05:46:06.896Z,89.22
2023-11-30T05:47:06.898Z,89.42
2023-11-30T05:48:06.954Z,89.62
2023-11-30T05:49:06.913Z,89.62
2023-11-30T05:50:06.861Z,89.92
2023-11-30T05:51:06.942Z,90.06
2023-11-30T05:52:06.836Z,90.06
2023-11-30T05:53:06.840Z,90.26
2023-11-30T05:54:06.825Z,90.26
2023-11-30T05:55:06.802Z,90.16
2023-11-30T05:56:06.802Z,90.06
2023-11-30T05:57:06.803Z,90.26
2023-11-30T05:58:06.774Z,90.22
2023-11-30T05:59:06.769Z,90.02
2023-11-30T06:00:06.751Z,89.96
2023-11-30T06:01:06.742Z,89.86
2023-11-30T06:02:06.776Z,90.02
2023-11-30T06:03:08.775Z,90.22
2023-11-30T06:04:07.018Z,90.22
2023-11-30T06:05:06.725Z,90.02
2023-11-30T06:06:06.688Z,90.02
2023-11-30T06:07:06.663Z,89.72
2023-11-30T06:08:06.676Z,89.82
2023-11-30T06:09:06.668Z,89.92
2023-11-30T06:10:06.713Z,90.02
2023-11-30T06:11:06.811Z,89.72
2023-11-30T06:12:06.753Z,89.42
2023-11-30T06:13:06.591Z,89.52
2023-11-30T06:14:06.622Z,89.62
2023-11-30T06:15:06.594Z,89.72
2023-11-30T06:16:06.572Z,89.62
2023-11-30T06:17:06.575Z,89.72
2023-11-30T06:18:06.631Z,89.62
2023-11-30T06:19:06.587Z,89.52
2023-11-30T06:20:09.343Z,89.62
2023-11-30T06:21:06.699Z,89.72
2023-11-30T06:22:06.500Z,89.32
2023-11-30T06:23:06.591Z,89.22
2023-11-30T06:24:06.505Z,89.42
2023-11-30T06:25:06.483Z,89.42
2023-11-30T06:26:06.455Z,89.22
2023-11-30T06:27:06.553Z,89.32
2023-11-30T06:28:06.502Z,89.42
2023-11-30T06:29:06.461Z,89.52
2023-11-30T06:30:06.377Z,89.52
2023-11-30T06:31:06.436Z,89.32
2023-11-30T06:32:06.367Z,89.32
2023-11-30T06:33:06.458Z,89.22
2023-11-30T06:34:06.377Z,89.12
2023-11-30T06:35:06.447Z,89.02
2023-11-30T06:36:06.357Z,88.92
2023-11-30T06:37:06.358Z,88.82
2023-11-30T06:38:06.313Z,88.92
2023-11-30T06:39:06.324Z,88.82
2023-11-30T06:40:06.312Z,88.92
2023-11-30T06:41:06.306Z,89.12
2023-11-30T06:42:06.288Z,89.02
2023-11-30T06:43:06.259Z,89.22
2023-11-30T06:44:06.206Z,88.92
2023-11-30T06:45:06.299Z,88.92
2023-11-30T06:46:06.217Z,88.92
2023-11-30T06:47:06.268Z,89.12
2023-11-30T06:48:06.292Z,89.02
2023-11-30T06:49:06.246Z,88.62
2023-11-30T06:50:06.186Z,88.36
2023-11-30T06:51:06.242Z,88.76
2023-11-30T06:52:06.175Z,88.66
2023-11-30T06:53:06.170Z,88.76
2023-11-30T06:54:06.186Z,89.06
2023-11-30T06:55:06.127Z,88.46
2023-11-30T06:56:06.102Z,89.16
2023-11-30T06:57:06.161Z,88.96
2023-11-30T06:58:06.096Z,89.26
2023-11-30T06:59:06.155Z,89.26
2023-11-30T07:00:06.090Z,89.16
2023-11-30T07:01:06.087Z,88.80
2023-11-30T07:02:06.087Z,89.11
2023-11-30T07:03:06.160Z,89.40
2023-11-30T07:04:06.160Z,89.70
2023-11-30T07:05:06.098Z,89.40
2023-11-30T07:06:07.523Z,89.40
2023-11-30T07:07:05.999Z,89.26
2023-11-30T07:08:06.022Z,89.26
2023-11-30T07:09:06.040Z,88.86
2023-11-30T07:10:06.025Z,89.26
2023-11-30T07:11:06.015Z,88.96
2023-11-30T07:12:06.061Z,89.00
2023-11-30T07:13:06.107Z,88.96
2023-11-30T07:14:06.040Z,89.16
2023-11-30T07:15:06.081Z,89.06
2023-11-30T07:16:06.008Z,88.76
2023-11-30T07:17:05.956Z,88.56
2023-11-30T07:18:08.659Z,88.60
2023-11-30T07:19:05.864Z,88.60
2023-11-30T07:20:05.892Z,88.90
2023-11-30T07:21:05.895Z,88.80
2023-11-30T07:22:05.877Z,88.80
2023-11-30T07:23:05.888Z,88.90
2023-11-30T07:24:05.876Z,89.00
2023-11-30T07:25:05.753Z,88.90
2023-11-30T07:26:05.794Z,89.11
2023-11-30T07:27:05.881Z,89.20
2023-11-30T07:28:05.752Z,89.20
2023-11-30T07:29:05.760Z,89.20
2023-11-30T07:30:05.834Z,89.11
2023-11-30T07:31:05.773Z,89.06
2023-11-30T07:32:06.269Z,88.96
2023-11-30T07:33:05.928Z,89.06
2023-11-30T07:34:05.701Z,88.96
2023-11-30T07:35:05.692Z,88.66
2023-11-30T07:36:05.931Z,88.56
2023-11-30T07:37:05.641Z,88.26
2023-11-30T07:38:05.701Z,87.66
2023-11-30T07:39:05.719Z,88.10
2023-11-30T07:40:05.662Z,88.50
2023-11-30T07:41:05.638Z,88.30
2023-11-30T07:42:07.579Z,88.40
2023-11-30T07:43:05.621Z,88.70
2023-11-30T07:44:05.577Z,88.90
2023-11-30T07:45:05.623Z,88.70
2023-11-30T07:46:05.588Z,88.50
2023-11-30T07:47:05.582Z,88.70
2023-11-30T07:48:05.723Z,88.80
2023-11-30T07:49:05.507Z,88.70
2023-11-30T07:50:05.595Z,88.40
2023-11-30T07:51:05.648Z,88.60
2023-11-30T07:52:05.529Z,88.60
2023-11-30T07:53:05.544Z,88.95
2023-11-30T07:54:05.544Z,89.25
2023-11-30T07:55:06.458Z,89.54
2023-11-30T07:56:06.117Z,89.45
2023-11-30T07:57:05.548Z,89.75
2023-11-30T07:58:05.464Z,89.85
2023-11-30T07:59:05.557Z,89.61
2023-11-30T08:00:05.466Z,89.40
2023-11-30T08:01:05.586Z,89.30
2023-11-30T08:02:05.622Z,89.30
2023-11-30T08:03:05.481Z,89.11
2023-11-30T08:04:05.552Z,89.00
2023-11-30T08:05:05.396Z,89.00
2023-11-30T08:06:05.409Z,88.70
2023-11-30T08:07:05.398Z,88.70
2023-11-30T08:08:05.410Z,88.90
2023-11-30T08:09:05.358Z,89.11
2023-11-30T08:10:05.312Z,89.11
2023-11-30T08:11:05.332Z,88.70
2023-11-30T08:12:05.298Z,88.70
2023-11-30T08:13:05.260Z,88.60
2023-11-30T08:14:05.348Z,88.90
2023-11-30T08:15:05.309Z,89.00
2023-11-30T08:16:05.381Z,89.11
2023-11-30T08:17:05.277Z,89.11
2023-11-30T08:18:05.334Z,89.20
2023-11-30T08:19:05.256Z,89.11
2023-11-30T08:20:05.202Z,89.00
2023-11-30T08:21:05.199Z,89.00
2023-11-30T08:22:05.216Z,89.20
2023-11-30T08:23:05.200Z,89.00
2023-11-30T08:24:05.236Z,89.00
2023-11-30T08:25:05.208Z,89.00
2023-11-30T08:26:05.244Z,88.90
2023-11-30T08:27:05.153Z,88.80
2023-11-30T08:28:05.123Z,88.40
2023-11-30T08:29:05.194Z,88.50
2023-11-30T08:30:05.165Z,88.70
2023-11-30T08:31:05.072Z,88.80
2023-11-30T08:32:05.077Z,88.90
2023-11-30T08:33:06.871Z,88.80
2023-11-30T08:34:05.112Z,88.76
2023-11-30T08:35:05.529Z,88.66
2023-11-30T08:36:05.127Z,88.36
2023-11-30T08:37:05.115Z,88.10
2023-11-30T08:38:04.986Z,88.30
2023-11-30T08:39:05.053Z,88.50
2023-11-30T08:40:05.005Z,88.60
2023-11-30T08:41:05.004Z,88.40
2023-11-30T08:42:04.970Z,88.50
2023-11-30T08:43:04.945Z,88.70
2023-11-30T08:44:04.926Z,88.80
2023-11-30T08:45:05.515Z,88.80
2023-11-30T08:46:05.087Z,88.70
2023-11-30T08:47:04.943Z,88.70
2023-11-30T08:48:04.955Z,88.70
2023-11-30T08:49:04.880Z,88.80
2023-11-30T08:50:04.886Z,88.70
2023-11-30T08:51:04.899Z,88.70
2023-11-30T08:52:04.883Z,88.70
2023-11-30T08:53:05.308Z,88.70
2023-11-30T08:54:04.954Z,88.90
2023-11-30T08:55:04.833Z,88.90
2023-11-30T08:56:04.802Z,89.00
2023-11-30T08:57:04.824Z,88.86
2023-11-30T08:58:04.838Z,88.46
2023-11-30T08:59:05.076Z,88.56
2023-11-30T09:00:04.802Z,88.60
2023-11-30T09:01:04.756Z,88.76
2023-11-30T09:02:04.887Z,88.50
2023-11-30T09:03:04.791Z,88.40
2023-11-30T09:04:04.915Z,88.70
2023-11-30T09:05:05.577Z,89.00
2023-11-30T09:06:05.023Z,89.30
2023-11-30T09:07:04.706Z,89.40
2023-11-30T09:08:04.683Z,89.30
2023-11-30T09:09:04.689Z,89.40
2023-11-30T09:10:04.684Z,89.50
2023-11-30T09:11:04.615Z,89.61
2023-11-30T09:12:04.672Z,89.20
2023-11-30T09:13:04.617Z,89.00
2023-11-30T09:14:04.574Z,89.11
2023-11-30T09:15:04.608Z,89.30
2023-11-30T09:16:04.601Z,89.50
2023-11-30T09:17:04.549Z,89.40
2023-11-30T09:18:04.693Z,89.20
2023-11-30T09:19:04.509Z,89.00
2023-11-30T09:20:04.518Z,89.30
2023-11-30T09:21:04.546Z,89.46
2023-11-30T09:22:04.518Z,89.46
2023-11-30T09:23:04.482Z,89.36
2023-11-30T09:24:04.586Z,88.96
2023-11-30T09:25:04.463Z,88.86
2023-11-30T09:26:04.503Z,89.06
2023-11-30T09:27:04.500Z,89.26
2023-11-30T09:28:04.520Z,89.26
2023-11-30T09:29:04.448Z,89.26
2023-11-30T09:30:04.488Z,89.26
2023-11-30T09:31:04.419Z,89.16
2023-11-30T09:32:04.423Z,89.06
2023-11-30T09:33:04.434Z,88.76
2023-11-30T09:34:04.444Z,88.66
2023-11-30T09:35:04.384Z,88.62
2023-11-30T09:36:04.442Z,88.42
2023-11-30T09:37:04.411Z,88.42
2023-11-30T09:38:04.323Z,88.52
2023-11-30T09:39:04.359Z,88.52
2023-11-30T09:40:04.320Z,88.21
2023-11-30T09:41:04.348Z,88.12
2023-11-30T09:42:04.350Z,88.21
2023-11-30T09:43:04.265Z,88.32
2023-11-30T09:44:04.269Z,88.42
2023-11-30T09:45:04.353Z,88.21
2023-11-30T09:46:04.386Z,88.42
2023-11-30T09:47:04.343Z,88.02
2023-11-30T09:48:04.317Z,88.12
2023-11-30T09:49:05.419Z,87.92
2023-11-30T09:50:04.307Z,88.12
2023-11-30T09:51:04.322Z,88.21
2023-11-30T09:52:04.202Z,88.12
2023-11-30T09:53:04.201Z,88.32
2023-11-30T09:54:04.262Z,88.32
2023-11-30T09:55:04.215Z,88.32
2023-11-30T09:56:04.148Z,88.42
2023-11-30T09:57:04.203Z,88.32
2023-11-30T09:58:04.124Z,88.32
2023-11-30T09:59:04.138Z,88.32
2023-11-30T10:00:04.137Z,88.21
2023-11-30T10:01:04.248Z,88.12
2023-11-30T10:02:06.581Z,88.02
2023-11-30T10:03:04.108Z,87.87
2023-11-30T10:04:04.145Z,87.77
2023-11-30T10:05:04.084Z,87.77
2023-11-30T10:06:04.166Z,87.68
2023-11-30T10:07:04.094Z,87.68
2023-11-30T10:08:04.347Z,87.57
2023-11-30T10:09:04.126Z,87.23
2023-11-30T10:10:03.979Z,87.13
2023-11-30T10:11:04.013Z,86.73
2023-11-30T10:12:04.023Z,86.73
2023-11-30T10:13:04.056Z,86.63
2023-11-30T10:14:03.963Z,86.43
2023-11-30T10:15:03.971Z,86.53
2023-11-30T10:16:04.067Z,86.53
2023-11-30T10:17:04.197Z,86.13
2023-11-30T10:18:04.242Z,86.23
2023-11-30T10:19:06.046Z,86.33
2023-11-30T10:20:03.887Z,86.53
2023-11-30T10:21:03.965Z,86.69
2023-11-30T10:22:03.872Z,86.59
2023-11-30T10:23:03.877Z,86.19
2023-11-30T10:24:03.886Z,85.89
2023-11-30T10:25:03.811Z,85.79
2023-11-30T10:26:03.925Z,85.59
2023-11-30T10:27:04.068Z,85.29
2023-11-30T10:28:03.808Z,85.39
2023-11-30T10:29:03.817Z,84.79
2023-11-30T10:30:03.860Z,85.55
2023-11-30T10:31:04.141Z,85.55
2023-11-30T10:32:03.759Z,85.25
2023-11-30T10:33:03.877Z,84.75
2023-11-30T10:34:03.844Z,84.75
2023-11-30T10:35:03.825Z,85.15
2023-11-30T10:36:03.674Z,85.05
2023-11-30T10:37:04.484Z,85.15
2023-11-30T10:38:03.778Z,84.95
2023-11-30T10:39:03.720Z,84.91
2023-11-30T10:40:03.688Z,85.01
2023-11-30T10:41:03.684Z,84.71
2023-11-30T10:42:03.616Z,84.71
2023-11-30T10:43:04.584Z,84.91
2023-11-30T10:44:03.670Z,84.91
2023-11-30T10:45:03.610Z,84.31
2023-11-30T10:46:03.625Z,84.31
2023-11-30T10:47:03.722Z,84.41
2023-11-30T10:48:03.622Z,83.97
2023-11-30T10:49:03.630Z,83.77
2023-11-30T10:50:03.555Z,83.77
2023-11-30T10:51:03.570Z,82.83
2023-11-30T10:52:04.359Z,83.43
2023-11-30T10:53:03.566Z,82.64
2023-11-30T10:54:03.482Z,82.73
2023-11-30T10:55:03.517Z,83.33
2023-11-30T10:56:03.535Z,83.43
2023-11-30T10:57:03.536Z,83.83
2023-11-30T10:58:03.664Z,83.69
2023-11-30T10:59:03.555Z,82.89
2023-11-30T11:00:03.465Z,81.90
2023-11-30T11:01:04.460Z,81.49
2023-11-30T11:02:03.506Z,82.09
2023-11-30T11:03:03.537Z,81.30
2023-11-30T11:04:03.498Z,82.09
2023-11-30T11:05:03.395Z,83.29
2023-11-30T11:06:03.414Z,82.89
2023-11-30T11:07:03.374Z,83.39
2023-11-30T11:08:03.438Z,83.55
2023-11-30T11:09:03.388Z,83.65
2023-11-30T11:10:03.869Z,81.70
2023-11-30T11:11:04.115Z,82.65
2023-11-30T11:12:03.394Z,82.75
2023-11-30T11:13:03.327Z,82.95
2023-11-30T11:14:03.381Z,82.86
2023-11-30T11:15:03.316Z,82.15
2023-11-30T11:16:03.460Z,82.75
2023-11-30T11:17:03.322Z,81.06
2023-11-30T11:18:03.310Z,81.76
2023-11-30T11:19:03.279Z,80.70
2023-11-30T11:20:03.288Z,81.20
2023-11-30T11:21:03.222Z,82.29
2023-11-30T11:22:03.544Z,82.29
2023-11-30T11:23:03.442Z,82.69
2023-11-30T11:24:03.282Z,83.05
2023-11-30T11:25:03.262Z,80.96
2023-11-30T11:26:03.869Z,80.36
2023-11-30T11:27:03.151Z,81.36
2023-11-30T11:28:03.210Z,80.86
2023-11-30T11:29:03.258Z,81.46
2023-11-30T11:30:03.184Z,81.66
2023-11-30T11:31:03.231Z,81.12
2023-11-30T11:32:03.298Z,81.32
2023-11-30T11:33:03.215Z,80.48
2023-11-30T11:34:03.634Z,80.29
2023-11-30T11:35:03.258Z,80.08
2023-11-30T11:36:03.172Z,79.45
2023-11-30T11:37:03.938Z,78.65
2023-11-30T11:38:03.125Z,78.35
2023-11-30T11:39:03.128Z,78.39
2023-11-30T11:40:03.123Z,79.49
2023-11-30T11:41:03.124Z,78.59
2023-11-30T11:42:03.030Z,79.19
2023-11-30T11:43:03.029Z,80.08
2023-11-30T11:44:03.454Z,79.55
2023-11-30T11:45:03.180Z,79.75
2023-11-30T11:46:03.075Z,79.65
2023-11-30T11:47:03.207Z,79.21
2023-11-30T11:48:03.012Z,78.91
2023-11-30T11:49:02.914Z,77.82
2023-11-30T11:50:04.648Z,78.02
2023-11-30T11:51:03.085Z,77.22
2023-11-30T11:52:02.956Z,77.72
2023-11-30T11:53:03.094Z,78.28
2023-11-30T11:54:03.023Z,78.67
2023-11-30T11:55:02.892Z,78.67
2023-11-30T11:56:02.945Z,78.48
2023-11-30T11:57:02.889Z,78.04
2023-11-30T11:58:02.883Z,76.65
2023-11-30T11:59:02.985Z,76.65
2023-11-30T12:00:02.841Z,75.95
2023-11-30T12:01:02.982Z,76.06
2023-11-30T12:02:02.822Z,76.45
2023-11-30T12:03:02.805Z,77.34
2023-11-30T12:04:02.875Z,77.05
2023-11-30T12:05:02.888Z,77.31
2023-11-30T12:06:02.896Z,77.01
2023-11-30T12:07:02.830Z,75.92
2023-11-30T12:08:02.709Z,76.21
2023-11-30T12:09:02.895Z,75.22
2023-11-30T12:10:02.701Z,75.22
2023-11-30T12:11:03.622Z,75.42
2023-11-30T12:12:02.708Z,75.32
2023-11-30T12:13:02.738Z,75.62
2023-11-30T12:14:02.670Z,75.72
2023-11-30T12:15:02.699Z,76.81
2023-11-30T12:16:03.610Z,76.91
2023-11-30T12:17:02.900Z,76.18
2023-11-30T12:18:02.780Z,76.18
2023-11-30T12:19:02.740Z,75.88
2023-11-30T12:20:02.616Z,76.97
2023-11-30T12:21:03.597Z,77.57
2023-11-30T12:22:02.631Z,76.97
2023-11-30T12:23:02.751Z,76.38
2023-11-30T12:24:02.553Z,76.28
2023-11-30T12:25:02.612Z,73.93
2023-11-30T12:26:02.547Z,75.72
2023-11-30T12:27:02.672Z,75.68
2023-11-30T12:28:02.470Z,74.19
2023-11-30T12:29:02.569Z,75.09
2023-11-30T12:30:02.608Z,76.18
2023-11-30T12:31:02.597Z,75.95
2023-11-30T12:32:02.493Z,73.36
2023-11-30T12:33:02.551Z,75.55
2023-11-30T12:34:02.528Z,73.96
2023-11-30T12:35:02.720Z,73.76
2023-11-30T12:36:02.519Z,74.85
2023-11-30T12:37:02.688Z,74.26
2023-11-30T12:38:02.427Z,74.02
2023-11-30T12:39:02.434Z,72.47
2023-11-30T12:40:02.522Z,75.25
2023-11-30T12:41:02.616Z,75.51
2023-11-30T12:42:03.636Z,73.33
2023-11-30T12:43:02.355Z,73.63
2023-11-30T12:44:03.607Z,73.46
2023-11-30T12:45:02.365Z,74.65
2023-11-30T12:46:02.475Z,75.12
2023-11-30T12:47:02.392Z,76.01
2023-11-30T12:48:02.323Z,73.63
2023-11-30T12:49:02.608Z,75.51
2023-11-30T12:50:02.307Z,75.67
2023-11-30T12:51:02.319Z,75.18
2023-11-30T12:52:02.264Z,75.18